Time,TemperatureF,DewpointF,PressureIn,WindDirection,WindDirectionDegrees,WindSpeedMPH,WindSpeedGustMPH,Humidity,HourlyPrecipIn,Conditions,Clouds,dailyrainin,SolarRadiationWatts/m^2,SoftwareType,DateUTC
2013-05-18 00:00:00,75.5,68.9,30.08,ENE,57,1.0,1.0,80,0.00,,,0.00,0,Wunderground v.1.15,2013-05-18 04:00:00,
2013-05-18 00:30:00,75.1,68.1,30.08,ENE,61,3.0,3.0,79,0.00,,,0.00,0,Wunderground v.1.15,2013-05-18 04:30:00,
2013-05-18 01:00:00,74.9,68.7,30.07,East,80,2.0,2.0,81,0.00,,,0.00,0,Wunderground v.1.15,2013-05-18 05:00:00,
2013-05-18 01:30:00,74.8,68.6,30.06,ESE,112,6.0,6.0,81,0.00,,,0.00,0,Wunderground v.1.15,2013-05-18 05:30:00,
2013-05-18 02:00:00,74.1,69.3,30.06,ESE,103,6.0,6.0,85,0.00,,,0.00,0,Wunderground v.1.15,2013-05-18 06:00:00,
2013-05-18 02:30:00,73.7,69.6,30.06,ESE,114,7.0,7.0,87,0.00,,,0.00,0,Wunderground v.1.15,2013-05-18 06:30:00,
2013-05-18 03:00:00,73.2,69.4,30.05,East,100,7.0,7.0,88,0.00,,,0.00,0,Wunderground v.1.15,2013-05-18 07:00:00,
2013-05-18 03:30:00,72.8,69.4,30.05,East,90,5.0,8.0,89,0.00,,,0.00,0,Wunderground v.1.15,2013-05-18 07:30:00,
2013-05-18 04:00:00,72.4,69.3,30.05,ESE,116,7.0,9.0,90,0.00,,,0.00,0,Wunderground v.1.15,2013-05-18 08:00:00,
2013-05-18 04:30:00,72.0,69.2,30.05,ESE,105,6.0,6.0,91,0.00,,,0.00,0,Wunderground v.1.15,2013-05-18 08:30:00,
2013-05-18 05:00:00,71.7,68.9,30.05,ESE,109,7.0,9.0,91,0.00,,,0.00,0,Wunderground v.1.15,2013-05-18 09:00:00,
2013-05-18 05:30:00,71.9,69.8,30.06,ESE,110,5.0,5.0,93,0.00,,,0.00,0,Wunderground v.1.15,2013-05-18 09:30:00,
2013-05-18 06:00:00,71.5,69.4,30.06,East,86,5.0,6.0,93,0.00,,,0.00,0,Wunderground v.1.15,2013-05-18 10:00:00,
2013-05-18 06:30:00,71.2,69.4,30.06,ESE,105,3.0,9.0,94,0.00,,,0.00,0,Wunderground v.1.15,2013-05-18 10:30:00,
2013-05-18 07:00:00,71.3,69.5,30.07,SE,129,2.0,2.0,94,0.00,,,0.00,25,Wunderground v.1.15,2013-05-18 11:00:00,
2013-05-18 07:30:00,71.8,70.0,30.08,ESE,102,1.0,4.0,94,0.00,,,0.00,91,Wunderground v.1.15,2013-05-18 11:30:00,
2013-05-18 08:00:00,72.3,70.2,30.08,SE,128,1.0,1.0,93,0.00,,,0.00,169,Wunderground v.1.15,2013-05-18 12:00:00,
2013-05-18 08:30:00,73.0,70.9,30.09,ESE,123,0.0,0.0,93,0.00,,,0.00,292,Wunderground v.1.15,2013-05-18 12:30:00,
2013-05-18 09:00:00,72.6,70.5,30.10,SE,138,0.0,0.0,93,0.00,,,0.00,392,Wunderground v.1.15,2013-05-18 13:00:00,
2013-05-18 09:30:00,73.6,71.4,30.10,SSE,148,0.0,0.0,93,0.00,,,0.00,485,Wunderground v.1.15,2013-05-18 13:30:00,
2013-05-18 10:00:00,74.1,71.9,30.10,South,181,0.0,0.0,93,0.00,,,0.00,478,Wunderground v.1.15,2013-05-18 14:00:00,
2013-05-18 10:30:00,76.1,72.6,30.10,South,186,1.0,1.0,89,0.00,,,0.00,464,Wunderground v.1.15,2013-05-18 14:30:00,
2013-05-18 11:00:00,76.5,72.3,30.10,SSW,207,0.0,0.0,87,0.00,,,0.00,747,Wunderground v.1.15,2013-05-18 15:00:00,
2013-05-18 11:30:00,75.8,72.3,30.10,SW,232,1.0,1.0,89,0.00,,,0.00,803,Wunderground v.1.15,2013-05-18 15:30:00,
2013-05-18 12:00:00,75.8,72.7,30.10,WSW,237,3.0,3.0,90,0.00,,,0.00,858,Wunderground v.1.15,2013-05-18 16:00:00,
2013-05-18 12:30:00,76.2,73.1,30.09,WSW,238,4.0,7.0,90,0.00,,,0.00,900,Wunderground v.1.15,2013-05-18 16:30:00,
2013-05-18 13:00:00,76.7,72.5,30.09,WSW,239,7.0,7.0,87,0.00,,,0.00,923,Wunderground v.1.15,2013-05-18 17:00:00,
2013-05-18 13:30:00,76.8,73.0,30.08,SW,235,10.0,10.0,88,0.00,,,0.00,937,Wunderground v.1.15,2013-05-18 17:30:00,
2013-05-18 14:00:00,77.1,73.3,30.08,SW,232,12.0,12.0,88,0.00,,,0.00,930,Wunderground v.1.15,2013-05-18 18:00:00,
2013-05-18 14:30:00,77.5,73.3,30.07,WSW,238,12.0,12.0,87,0.00,,,0.00,900,Wunderground v.1.15,2013-05-18 18:30:00,
2013-05-18 15:00:00,78.4,73.2,30.06,WSW,251,11.0,12.0,84,0.00,,,0.00,872,Wunderground v.1.15,2013-05-18 19:00:00,
2013-05-18 15:30:00,78.5,72.9,30.05,West,263,14.0,14.0,83,0.00,,,0.00,809,Wunderground v.1.15,2013-05-18 19:30:00,
2013-05-18 16:00:00,79.4,73.1,30.04,West,279,13.0,13.0,81,0.00,,,0.00,735,Wunderground v.1.15,2013-05-18 20:00:00,
2013-05-18 16:30:00,79.6,70.6,30.02,West,269,14.0,15.0,74,0.00,,,0.00,654,Wunderground v.1.15,2013-05-18 20:30:00,
2013-05-18 17:00:00,79.9,70.9,30.02,West,271,15.0,15.0,74,0.00,,,0.00,568,Wunderground v.1.15,2013-05-18 21:00:00,
2013-05-18 17:30:00,80.0,70.6,30.02,West,267,13.0,13.0,73,0.00,,,0.00,471,Wunderground v.1.15,2013-05-18 21:30:00,
2013-05-18 18:00:00,81.2,70.1,30.02,WNW,286,11.0,11.0,69,0.00,,,0.00,369,Wunderground v.1.15,2013-05-18 22:00:00,
2013-05-18 18:30:00,80.6,67.7,30.01,West,270,12.0,14.0,65,0.00,,,0.00,267,Wunderground v.1.15,2013-05-18 22:30:00,
2013-05-18 19:00:00,80.9,67.1,30.02,West,270,12.0,13.0,63,0.00,,,0.00,171,Wunderground v.1.15,2013-05-18 23:00:00,
2013-05-18 19:30:00,80.0,68.5,30.02,West,270,13.0,13.0,68,0.00,,,0.00,88,Wunderground v.1.15,2013-05-18 23:30:00,
2013-05-18 20:00:00,79.7,66.9,30.03,NW,312,9.0,12.0,65,0.00,,,0.00,19,Wunderground v.1.15,2013-05-19 00:00:00,
2013-05-18 20:30:00,79.1,68.5,30.03,WNW,293,6.0,6.0,70,0.00,,,0.00,0,Wunderground v.1.15,2013-05-19 00:30:00,
2013-05-18 21:00:00,78.6,68.8,30.03,WNW,286,7.0,8.0,72,0.00,,,0.00,0,Wunderground v.1.15,2013-05-19 01:00:00,
2013-05-18 21:30:00,78.4,69.4,30.02,WNW,300,8.0,9.0,74,0.00,,,0.00,0,Wunderground v.1.15,2013-05-19 01:30:00,
2013-05-18 22:00:00,78.6,68.8,30.04,WNW,297,11.0,12.0,72,0.00,,,0.00,0,Wunderground v.1.15,2013-05-19 02:00:00,
2013-05-18 22:30:00,78.1,69.9,30.04,NNW,328,13.0,14.0,76,0.00,,,0.00,0,Wunderground v.1.15,2013-05-19 02:30:00,
2013-05-18 23:00:00,77.3,70.6,30.05,NNW,345,12.0,12.0,80,0.00,,,0.00,0,Wunderground v.1.15,2013-05-19 03:00:00,
2013-05-18 23:30:00,77.4,70.7,30.07,NNE,15,9.0,9.0,80,0.00,,,0.00,0,Wunderground v.1.15,2013-05-19 03:30:00,